Time;durP1;ratioP1;P1;durP2;ratioP2;P2;SDS_P1;SDS_P2;PMS_P1;PMS_P2;Temp;Humidity;BMP_temperature;BMP_pressure;BME280_temperature;BME280_humidity;BME280_pressure;Samples;Min_cycle;Max_cycle;Signal;HPM_P1;HPM_P2
2022/11/04 00:02:23;;;;;;;20.90;10.30;;;;;;;7.07;74.86;100234.42;104559;1298;138193;-88
2022/11/04 00:13:34;;;;;;;18.00;9.40;;;;;;;7.11;74.63;100219.19;105142;1298;93129;-89
2022/11/04 00:18:54;;;;;;;17.20;8.40;;;;;;;7.14;74.44;100215.95;105098;1299;108543;-89
2022/11/04 00:30:01;;;;;;;17.60;8.80;;;;;;;7.23;74.03;100199.58;105094;1287;93465;-89
2022/11/04 00:35:21;;;;;;;17.80;9.70;;;;;;;7.26;74.02;100198.65;105087;1292;98024;-89
2022/11/04 00:37:52;;;;;;;16.50;8.50;;;;;;;7.26;74.10;100195.13;104937;1299;107421;-88
2022/11/04 00:40:24;;;;;;;15.30;8.10;;;;;;;7.28;74.02;100191.20;104966;1290;140726;-95
2022/11/04 00:42:57;;;;;;;18.40;8.60;;;;;;;7.30;74.04;100184.27;105124;1297;92894;-90
2022/11/04 00:45:28;;;;;;;17.30;8.50;;;;;;;7.32;74.00;100183.02;104939;1301;138531;-89
2022/11/04 00:47:59;;;;;;;17.60;8.60;;;;;;;7.32;74.02;100177.89;105071;1298;98146;-95
2022/11/04 00:50:30;;;;;;;16.80;8.30;;;;;;;7.34;74.01;100172.02;104800;1301;138639;-93
2022/11/04 00:53:02;;;;;;;15.40;8.40;;;;;;;7.36;73.79;100169.16;105080;1294;93524;-90
2022/11/04 00:55:33;;;;;;;17.80;9.00;;;;;;;7.40;73.76;100165.58;105145;1291;92823;-90
2022/11/04 00:58:04;;;;;;;19.00;9.10;;;;;;;7.44;73.53;100166.21;104834;1299;138400;-90
2022/11/04 01:00:34;;;;;;;17.60;8.40;;;;;;;7.45;73.53;100161.06;105061;1276;98407;-90
2022/11/04 01:03:05;;;;;;;16.70;8.50;;;;;;;7.51;73.44;100154.25;104971;1284;138900;-92
2022/11/04 01:05:38;;;;;;;19.60;8.80;;;;;;;7.57;73.21;100150.96;105065;1290;93245;-89
2022/11/04 01:08:09;;;;;;;16.80;8.90;;;;;;;7.58;73.09;100144.40;105133;1293;92822;-91
2022/11/04 01:10:43;;;;;;;17.60;8.50;;;;;;;7.56;73.21;100140.55;105106;1292;108512;-91
2022/11/04 01:13:14;;;;;;;16.80;8.80;;;;;;;7.55;73.12;100138.11;104933;1294;98298;-88
2022/11/04 01:15:45;;;;;;;16.60;8.10;;;;;;;7.57;73.14;100132.58;104976;1292;139602;-89
2022/11/04 01:18:15;;;;;;;19.70;9.30;;;;;;;7.54;73.10;100128.58;105065;1284;92965;-90
2022/11/04 01:20:46;;;;;;;17.10;8.50;;;;;;;7.51;73.29;100121.39;104989;1292;138829;-89
2022/11/04 01:23:17;;;;;;;15.70;8.00;;;;;;;7.54;73.50;100116.73;104952;1299;108343;-90
2022/11/04 01:25:50;;;;;;;16.90;8.70;;;;;;;7.57;73.29;100114.57;105119;1284;96819;-89
2022/11/04 01:28:21;;;;;;;19.40;8.60;;;;;;;7.57;73.15;100119.68;104983;1295;138446;-90
2022/11/04 01:30:52;;;;;;;16.30;9.00;;;;;;;7.54;73.06;100118.50;105105;1292;92889;-91
2022/11/04 01:33:23;;;;;;;17.30;8.50;;;;;;;7.52;73.28;100115.89;104964;1295;139742;-89
2022/11/04 01:35:54;;;;;;;18.20;8.30;;;;;;;7.48;73.22;100108.89;105127;1291;108424;-92
2022/11/04 01:38:25;;;;;;;16.20;9.20;;;;;;;7.49;73.40;100107.64;105005;1298;138637;-91
2022/11/04 01:40:56;;;;;;;20.00;8.80;;;;;;;7.49;73.36;100104.83;105094;1295;106141;-89
2022/11/04 01:43:49;;;;;;;17.00;8.90;;;;;;;7.48;73.44;100104.15;105091;1292;93115;-91
2022/11/04 01:46:27;;;;;;;13.90;7.40;;;;;;;7.47;73.48;100097.80;104865;1294;138579;-93
2022/11/04 01:49:04;;;;;;;16.60;8.40;;;;;;;7.43;73.59;100092.56;105113;1294;108366;-95
2022/11/04 01:51:42;;;;;;;17.70;8.50;;;;;;;7.42;73.71;100085.70;104985;1299;138777;-88
2022/11/04 01:54:14;;;;;;;15.80;7.80;;;;;;;7.39;73.57;100080.81;104938;1301;107686;-90
2022/11/04 01:56:47;;;;;;;16.10;8.50;;;;;;;7.40;73.51;100074.96;104870;1294;137449;-92
2022/11/04 01:59:22;;;;;;;16.50;8.10;;;;;;;7.45;73.60;100072.23;105130;1290;92832;-90
2022/11/04 02:01:53;;;;;;;20.20;9.00;;;;;;;7.47;73.58;100067.23;105110;1285;108516;-90
2022/11/04 02:04:28;;;;;;;17.50;8.50;;;;;;;7.50;73.35;100062.06;105011;1290;138286;-91
2022/11/04 02:07:02;;;;;;;17.60;9.00;;;;;;;7.49;73.32;100055.54;105061;1299;107976;-91
2022/11/04 02:09:34;;;;;;;15.80;7.80;;;;;;;7.52;73.42;100045.95;104859;1293;139469;-92
2022/11/04 02:14:55;;;;;;;16.00;7.80;;;;;;;7.47;73.57;100042.15;105021;1290;138177;-91
2022/11/04 02:17:45;;;;;;;16.20;7.50;;;;;;;7.47;73.49;100043.02;105098;1292;96781;-91
2022/11/04 02:20:36;;;;;;;17.10;7.80;;;;;;;7.48;73.47;100046.02;105011;1294;138790;-90
2022/11/04 02:23:51;;;;;;;16.00;8.00;;;;;;;7.48;73.24;100047.44;105081;1292;92928;-90
2022/11/04 02:26:58;;;;;;;17.40;8.20;;;;;;;7.51;73.51;100043.13;104627;1276;139282;-90
2022/11/04 02:29:47;;;;;;;16.30;8.30;;;;;;;7.54;72.93;100035.66;105078;1290;108464;-91
2022/11/04 02:32:25;;;;;;;15.50;7.80;;;;;;;7.53;72.83;100030.38;104991;1292;139523;-90
2022/11/04 02:35:03;;;;;;;15.20;8.20;;;;;;;7.50;73.09;100026.55;104967;1299;107694;-93
2022/11/04 02:37:46;;;;;;;16.40;8.20;;;;;;;7.48;73.13;100026.05;104932;1299;93329;-91
2022/11/04 02:40:27;;;;;;;16.60;8.10;;;;;;;7.51;72.98;100019.82;104992;1284;139675;-94
2022/11/04 02:43:03;;;;;;;17.10;8.30;;;;;;;7.53;72.73;100016.94;105127;1286;107569;-93
2022/11/04 02:45:41;;;;;;;16.80;8.50;;;;;;;7.53;72.95;100010.05;105023;1291;138981;-92
2022/11/04 02:48:19;;;;;;;17.70;8.50;;;;;;;7.52;72.71;100007.23;105075;1294;107601;-93
2022/11/04 02:50:56;;;;;;;13.50;7.40;;;;;;;7.57;72.78;100005.92;104865;1299;140052;-90
2022/11/04 02:53:32;;;;;;;15.10;7.80;;;;;;;7.60;72.71;100005.52;105140;1289;93749;-89
2022/11/04 02:56:05;;;;;;;15.40;7.90;;;;;;;7.60;72.48;100009.40;104955;1293;108273;-92
2022/11/04 02:58:41;;;;;;;15.50;8.40;;;;;;;7.58;72.67;100003.79;104996;1291;138710;-90
2022/11/04 03:01:16;;;;;;;16.50;8.10;;;;;;;7.57;72.61;99997.10;105106;1292;106454;-91
2022/11/04 03:03:53;;;;;;;15.30;8.10;;;;;;;7.58;72.59;99995.66;104958;1291;137403;-93
2022/11/04 03:06:27;;;;;;;14.90;8.50;;;;;;;7.60;72.68;99994.54;105126;1285;93154;-89
2022/11/04 03:09:00;;;;;;;15.60;8.20;;;;;;;7.63;72.44;99994.67;104891;1287;138560;-91
2022/11/04 03:11:32;;;;;;;17.10;8.40;;;;;;;7.63;72.41;99999.08;105097;1297;97041;-93
2022/11/04 03:14:14;;;;;;;16.60;8.60;;;;;;;7.62;72.44;99998.74;105108;1290;107451;-91
2022/11/04 03:16:49;;;;;;;14.70;8.10;;;;;;;7.61;72.51;99998.58;105046;1293;94213;-92
2022/11/04 03:19:29;;;;;;;17.10;7.80;;;;;;;7.62;72.47;100000.70;105112;1299;93140;-91
2022/11/04 03:22:04;;;;;;;15.80;8.40;;;;;;;7.64;72.44;99993.58;104975;1291;138727;-91
2022/11/04 03:24:35;;;;;;;15.10;7.50;;;;;;;7.68;72.37;99992.77;105140;1295;98204;-92
2022/11/04 03:27:13;;;;;;;15.40;7.70;;;;;;;7.74;72.38;99988.79;104843;1295;138899;-93
2022/11/04 03:29:57;;;;;;;15.70;7.60;;;;;;;7.76;71.95;99986.10;105109;1291;93670;-91
2022/11/04 03:32:36;;;;;;;14.60;7.20;;;;;;;7.68;71.97;99983.23;105014;1298;137841;-91
2022/11/04 03:35:11;;;;;;;15.40;7.20;;;;;;;7.66;72.10;99978.35;104963;1298;110427;-93
2022/11/04 03:37:42;;;;;;;14.10;7.10;;;;;;;7.67;72.22;99974.60;105114;1284;97821;-92
2022/11/04 03:40:14;;;;;;;14.40;8.00;;;;;;;7.70;72.20;99971.89;104984;1291;138647;-92
2022/11/04 03:42:51;;;;;;;14.80;7.20;;;;;;;7.72;72.22;99966.73;104940;1295;93324;-91
2022/11/04 03:45:22;;;;;;;13.50;7.00;;;;;;;7.72;72.11;99961.62;105043;1287;138453;-90
2022/11/04 03:47:53;;;;;;;13.90;7.30;;;;;;;7.74;72.13;99954.68;105134;1292;108181;-91
2022/11/04 03:50:28;;;;;;;15.10;7.10;;;;;;;7.76;72.07;99945.44;105047;1292;139404;-94
2022/11/04 03:53:00;;;;;;;14.10;7.50;;;;;;;7.77;72.09;99940.12;105013;1290;107758;-93
2022/11/04 03:55:43;;;;;;;17.60;7.40;;;;;;;7.78;72.34;99938.14;105121;1294;93641;-90
2022/11/04 03:58:25;;;;;;;16.50;7.30;;;;;;;7.82;72.47;99934.69;105033;1290;138525;-96
2022/11/04 04:01:04;;;;;;;14.00;7.50;;;;;;;7.85;72.60;99948.42;105128;1291;109011;-94
2022/11/04 04:03:41;;;;;;;14.50;7.60;;;;;;;7.85;72.43;99956.54;105046;1293;138775;-91
2022/11/04 04:06:15;;;;;;;14.80;7.20;;;;;;;7.85;72.74;99944.71;105116;1290;107477;-92
2022/11/04 04:08:53;;;;;;;13.60;6.50;;;;;;;7.89;72.74;99942.52;104998;1292;137525;-90
2022/11/04 04:11:36;;;;;;;13.50;6.90;;;;;;;7.93;72.54;99946.48;105091;1295;93132;-92
2022/11/04 04:14:37;;;;;;;14.00;7.00;;;;;;;7.94;72.35;99941.34;104978;1294;107550;-94
2022/11/04 04:17:17;;;;;;;13.80;6.80;;;;;;;7.91;72.24;99940.52;105011;1297;96769;-91
2022/11/04 04:19:52;;;;;;;13.70;6.90;;;;;;;7.91;72.15;99939.29;105072;1294;107669;-92
2022/11/04 04:22:28;;;;;;;14.90;7.40;;;;;;;7.92;71.95;99940.32;104976;1294;138905;-90
2022/11/04 04:27:54;;;;;;;11.90;5.90;;;;;;;7.96;71.96;99940.93;104982;1292;137747;-93
2022/11/04 04:30:27;;;;;;;13.90;7.50;;;;;;;7.95;71.92;99943.43;105030;1287;98385;-93
2022/11/04 04:33:03;;;;;;;13.10;6.50;;;;;;;8.00;71.82;99947.21;104979;1294;138839;-91
2022/11/04 04:35:42;;;;;;;12.50;6.70;;;;;;;8.01;71.53;99951.58;105033;1294;93083;-92
2022/11/04 04:47:01;;;;;;;15.30;6.80;;;;;;;8.01;71.42;99939.39;105150;1284;108096;-91
2022/11/04 04:49:36;;;;;;;14.90;7.00;;;;;;;8.01;71.47;99944.70;105124;1299;94126;-91
2022/11/04 04:52:11;;;;;;;12.50;6.30;;;;;;;8.03;71.64;99940.59;104991;1291;138055;-92
2022/11/04 04:54:43;;;;;;;12.80;6.40;;;;;;;8.04;71.49;99939.86;104980;1294;108620;-94
2022/11/04 04:57:17;;;;;;;11.80;6.40;;;;;;;8.06;71.77;99935.74;105038;1291;139122;-93
2022/11/04 04:59:50;;;;;;;14.20;6.80;;;;;;;8.07;71.64;99931.86;104947;1295;108842;-94
2022/11/04 05:02:21;;;;;;;13.50;6.40;;;;;;;8.07;71.84;99928.31;105061;1298;93442;-92
2022/11/04 05:04:53;;;;;;;11.60;6.10;;;;;;;8.09;71.75;99932.50;105020;1287;138302;-91
2022/11/04 05:07:23;;;;;;;12.40;6.30;;;;;;;8.09;71.47;99931.25;105145;1277;108334;-89
2022/11/04 05:09:54;;;;;;;14.40;6.90;;;;;;;8.08;71.32;99939.23;105010;1291;138527;-90
2022/11/04 05:12:25;;;;;;;14.70;6.40;;;;;;;8.10;71.74;99940.42;104946;1289;107935;-90
2022/11/04 05:14:56;;;;;;;13.40;6.60;;;;;;;8.13;71.40;99941.42;104939;1291;138772;-90
2022/11/04 05:17:30;;;;;;;11.70;6.40;;;;;;;8.12;71.46;99938.45;105139;1291;93107;-92
2022/11/04 05:20:00;;;;;;;12.80;6.30;;;;;;;8.12;71.34;99929.60;105116;1299;108231;-91
2022/11/04 05:22:31;;;;;;;13.30;7.10;;;;;;;8.12;71.41;99921.63;104965;1299;138183;-91
2022/11/04 05:25:05;;;;;;;13.60;6.50;;;;;;;8.14;71.55;99921.77;105094;1291;107996;-90
2022/11/04 05:27:37;;;;;;;13.30;6.10;;;;;;;8.15;71.37;99922.11;104983;1290;137562;-92
2022/11/04 05:30:10;;;;;;;12.70;6.70;;;;;;;8.15;71.34;99919.27;104964;1286;92858;-90
2022/11/04 05:32:40;;;;;;;13.10;6.80;;;;;;;8.17;71.49;99921.52;104967;1299;138185;-89
2022/11/04 05:35:12;;;;;;;13.70;6.90;;;;;;;8.16;71.40;99913.95;104981;1302;99809;-91
2022/11/04 05:37:45;;;;;;;12.70;5.80;;;;;;;8.15;71.56;99912.54;104948;1294;106511;-92
2022/11/04 05:40:16;;;;;;;11.50;5.80;;;;;;;8.16;71.35;99910.40;105047;1284;139050;-91
2022/11/04 05:43:03;;;;;;;13.00;6.40;;;;;;;8.17;71.29;99909.30;105115;1299;92897;-92
2022/11/04 05:45:33;;;;;;;13.10;5.90;;;;;;;8.17;71.34;99905.23;105052;1278;137882;-90
2022/11/04 05:48:10;;;;;;;11.70;5.90;;;;;;;8.19;71.48;99902.89;105154;1291;96905;-95
2022/11/04 05:50:43;;;;;;;12.10;5.70;;;;;;;8.21;71.17;99901.98;104912;1289;139011;-90
2022/11/04 05:53:16;;;;;;;12.30;6.40;;;;;;;8.23;71.17;99896.42;104964;1284;93304;-93
2022/11/04 05:55:50;;;;;;;12.40;6.10;;;;;;;8.26;71.22;99894.61;105144;1291;93233;-90
2022/11/04 05:58:24;;;;;;;12.90;6.50;;;;;;;8.26;71.41;99883.80;104984;1294;138454;-93
2022/11/04 06:01:13;;;;;;;10.70;5.40;;;;;;;8.27;71.25;99885.38;105039;1293;98220;-91
2022/11/04 06:03:46;;;;;;;12.90;6.00;;;;;;;8.28;71.13;99884.11;105014;1298;139120;-93
2022/11/04 06:06:19;;;;;;;13.40;6.80;;;;;;;8.30;71.26;99890.25;105150;1290;93268;-94
2022/11/04 06:08:51;;;;;;;10.80;6.10;;;;;;;8.31;70.96;99887.76;104921;1294;138302;-92
2022/11/04 06:11:26;;;;;;;11.50;5.80;;;;;;;8.32;71.01;99883.65;105142;1285;108338;-91
2022/11/04 06:14:02;;;;;;;12.70;5.80;;;;;;;8.35;71.19;99877.73;105067;1284;98030;-92
2022/11/04 06:16:35;;;;;;;12.70;7.00;;;;;;;8.40;70.86;99874.09;104994;1292;138080;-92
2022/11/04 06:19:08;;;;;;;11.00;5.50;;;;;;;8.39;70.60;99870.39;105070;1277;93617;-95
2022/11/04 06:21:55;;;;;;;12.40;6.60;;;;;;;8.39;70.59;99868.08;104970;1283;139730;-92
2022/11/04 06:24:28;;;;;;;13.20;5.90;;;;;;;8.40;70.67;99865.40;105104;1287;109143;-91
2022/11/04 06:26:59;;;;;;;13.70;6.60;;;;;;;8.44;70.89;99874.34;105034;1291;138145;-92
2022/11/04 06:29:40;;;;;;;12.80;6.50;;;;;;;8.48;70.61;99878.86;105102;1292;107290;-92
2022/11/04 06:32:17;;;;;;;11.90;6.20;;;;;;;8.44;70.55;99879.29;104966;1287;92688;-96
2022/11/04 06:34:48;;;;;;;11.40;6.10;;;;;;;8.42;70.78;99869.26;105026;1290;138454;-91
2022/11/04 06:37:20;;;;;;;11.60;5.70;;;;;;;8.41;70.84;99870.68;105166;1285;107773;-94
2022/11/04 06:40:03;;;;;;;11.20;6.00;;;;;;;8.42;70.84;99871.20;104993;1292;138390;-92
2022/11/04 06:42:36;;;;;;;13.10;6.30;;;;;;;8.40;70.71;99872.48;105116;1287;108041;-94
2022/11/04 06:45:12;;;;;;;11.90;6.00;;;;;;;8.41;70.89;99874.24;104864;1294;139243;-92
2022/11/04 06:47:44;;;;;;;12.80;5.70;;;;;;;8.44;70.74;99878.06;105112;1298;93696;-92
2022/11/04 06:50:17;;;;;;;12.10;5.90;;;;;;;8.45;70.54;99876.09;105124;1293;108887;-91
2022/11/04 06:52:52;;;;;;;11.60;6.10;;;;;;;8.48;70.77;99879.73;104982;1298;138587;-91
2022/11/04 06:55:23;;;;;;;12.90;6.20;;;;;;;8.53;70.70;99878.02;105107;1291;107418;-91
2022/11/04 06:57:54;;;;;;;13.80;6.30;;;;;;;8.59;70.74;99879.81;105011;1297;138915;-91
2022/11/04 07:00:26;;;;;;;12.50;6.00;;;;;;;8.65;70.50;99881.77;105136;1291;94074;-93
2022/11/04 07:02:56;;;;;;;11.70;6.00;;;;;;;8.69;70.11;99880.44;105027;1291;139075;-90
2022/11/04 07:08:16;;;;;;;10.90;5.50;;;;;;;8.64;69.48;99881.27;105030;1286;107478;-89
2022/11/04 07:10:54;;;;;;;11.60;5.80;;;;;;;8.64;69.81;99886.59;104733;1297;138700;-91
2022/11/04 07:13:26;;;;;;;11.50;5.90;;;;;;;8.68;69.87;99885.23;105056;1291;93306;-92
2022/11/04 07:15:58;;;;;;;12.50;6.00;;;;;;;8.72;69.89;99882.67;105019;1287;138112;-90
2022/11/04 07:18:29;;;;;;;12.90;6.50;;;;;;;8.74;69.75;99880.83;105110;1292;98401;-92
2022/11/04 07:21:00;;;;;;;11.10;5.60;;;;;;;8.78;69.52;99880.02;104982;1292;139533;-90
2022/11/04 07:23:41;;;;;;;11.80;5.80;;;;;;;8.80;69.44;99878.38;105128;1299;93135;-94
2022/11/04 07:26:17;;;;;;;10.60;5.60;;;;;;;8.79;69.13;99879.27;105169;1283;93340;-96
2022/11/04 07:28:52;;;;;;;12.30;5.90;;;;;;;8.75;69.19;99875.15;105017;1292;138170;-96
2022/11/04 07:31:26;;;;;;;10.60;5.60;;;;;;;8.74;69.32;99870.76;105086;1291;97034;-94
2022/11/04 07:33:58;;;;;;;12.10;6.10;;;;;;;8.78;69.23;99869.92;105019;1298;138294;-93
2022/11/04 07:36:33;;;;;;;13.30;6.00;;;;;;;8.81;69.33;99873.02;105124;1285;93642;-91
2022/11/04 07:39:05;;;;;;;14.10;6.40;;;;;;;8.86;69.34;99869.18;104806;1297;140054;-92
2022/11/04 07:41:36;;;;;;;15.90;6.30;;;;;;;8.92;69.17;99873.08;105005;1292;109270;-93
2022/11/04 07:44:12;;;;;;;10.40;5.90;;;;;;;8.99;69.16;99870.91;105099;1291;98163;-94
2022/11/04 07:46:43;;;;;;;12.20;6.40;;;;;;;9.06;68.85;99864.53;105026;1294;138155;-92
2022/11/04 07:49:16;;;;;;;13.20;6.70;;;;;;;9.07;68.73;99864.89;105111;1299;93203;-92
2022/11/04 07:51:53;;;;;;;13.20;6.50;;;;;;;9.07;68.65;99858.50;104993;1291;138694;-93
2022/11/04 07:54:24;;;;;;;12.80;6.40;;;;;;;9.09;68.74;99854.19;105173;1291;108250;-91
2022/11/04 07:56:55;;;;;;;14.30;6.60;;;;;;;9.08;68.68;99850.15;105036;1292;139350;-92
2022/11/04 07:59:26;;;;;;;12.70;6.60;;;;;;;9.10;68.88;99848.30;105089;1288;107573;-92
2022/11/04 08:02:19;;;;;;;13.50;6.90;;;;;;;9.11;68.77;99841.36;105113;1284;93180;-89
2022/11/04 08:05:11;;;;;;;12.30;6.00;;;;;;;9.12;68.76;99840.64;104869;1294;139064;-92
2022/11/04 08:07:43;;;;;;;13.10;7.40;;;;;;;9.15;68.98;99835.58;105037;1291;108860;-89
2022/11/04 08:10:14;;;;;;;11.50;6.00;;;;;;;9.19;68.81;99834.05;105001;1285;138263;-92
2022/11/04 08:12:50;;;;;;;12.90;6.70;;;;;;;9.16;68.63;99830.77;105008;1286;108448;-93
2022/11/04 08:15:23;;;;;;;13.00;6.40;;;;;;;9.14;68.42;99833.30;105022;1294;138957;-90
2022/11/04 08:17:54;;;;;;;12.50;6.20;;;;;;;9.13;68.53;99829.45;105105;1290;92953;-91
2022/11/04 08:20:25;;;;;;;11.40;6.30;;;;;;;9.16;69.17;99828.65;105061;1291;108629;-90
2022/11/04 08:22:58;;;;;;;12.10;6.10;;;;;;;9.18;68.58;99823.46;105033;1285;138263;-93
2022/11/04 08:25:31;;;;;;;11.70;6.20;;;;;;;9.16;68.75;99821.91;105138;1283;107469;-92
2022/11/04 08:31:30;;;;;;;11.30;6.10;;;;;;;9.28;68.76;99814.85;105106;1286;93309;-90
2022/11/04 08:34:04;;;;;;;13.00;6.50;;;;;;;9.28;68.47;99816.25;104995;1292;137739;-91
2022/11/04 08:36:40;;;;;;;13.90;6.80;;;;;;;9.29;68.83;99813.55;105029;1285;98537;-91
2022/11/04 08:39:15;;;;;;;11.60;6.00;;;;;;;9.35;68.97;99814.77;105002;1292;138779;-94
2022/11/04 08:41:47;;;;;;;13.00;6.60;;;;;;;9.37;68.37;99809.95;105156;1291;93636;-91
2022/11/04 08:44:24;;;;;;;12.70;6.40;;;;;;;9.37;68.46;99803.39;105093;1291;92942;-93
2022/11/04 08:46:55;;;;;;;13.30;6.60;;;;;;;9.33;68.40;99803.52;105069;1290;136858;-90
2022/11/04 08:49:29;;;;;;;12.10;6.40;;;;;;;9.29;69.19;99799.73;105149;1291;96744;-91
2022/11/04 08:52:11;;;;;;;12.90;6.70;;;;;;;9.27;69.35;99800.52;105038;1294;138273;-93
2022/11/04 08:54:43;;;;;;;11.20;6.70;;;;;;;9.24;70.02;99795.13;105145;1291;93271;-92
2022/11/04 08:57:18;;;;;;;12.70;7.20;;;;;;;9.22;69.86;99798.72;105065;1275;138070;-93
2022/11/04 08:59:53;;;;;;;12.90;6.70;;;;;;;9.20;69.62;99795.59;105034;1294;108506;-91
2022/11/04 09:02:26;;;;;;;14.20;7.60;;;;;;;9.22;69.53;99793.95;104989;1293;98242;-90
2022/11/04 09:05:00;;;;;;;12.40;6.50;;;;;;;9.26;69.51;99797.00;104856;1286;139219;-92
2022/11/04 09:07:34;;;;;;;14.50;6.90;;;;;;;9.26;69.65;99797.89;105130;1292;92920;-94
2022/11/04 09:10:08;;;;;;;14.10;7.70;;;;;;;9.27;69.81;99799.10;104742;1293;138396;-91
2022/11/04 09:12:42;;;;;;;11.90;6.40;;;;;;;9.28;69.86;99799.23;105108;1294;108673;-91
2022/11/04 09:15:14;;;;;;;13.00;7.20;;;;;;;9.32;69.64;99791.48;105070;1293;138896;-95
2022/11/04 09:17:52;;;;;;;13.20;7.30;;;;;;;9.38;69.57;99792.92;105170;1291;106289;-93
2022/11/04 09:20:28;;;;;;;14.60;7.10;;;;;;;9.41;69.24;99789.80;105140;1290;92936;-96
2022/11/04 09:23:09;;;;;;;13.30;6.90;;;;;;;9.43;69.56;99790.98;104990;1292;138621;-94
2022/11/04 09:25:47;;;;;;;13.30;6.80;;;;;;;9.45;69.79;99780.48;105166;1291;109587;-94
2022/11/04 09:28:19;;;;;;;14.30;8.20;;;;;;;9.44;69.91;99787.95;104899;1294;138279;-91
2022/11/04 09:30:51;;;;;;;15.10;7.90;;;;;;;9.45;69.93;99784.73;105117;1294;107515;-94
2022/11/04 09:36:22;;;;;;;14.20;7.70;;;;;;;9.50;69.77;99784.73;105173;1287;93108;-93
2022/11/04 09:38:54;;;;;;;14.30;7.10;;;;;;;9.61;69.47;99778.73;105107;1291;108207;-91
2022/11/04 09:41:51;;;;;;;14.40;7.10;;;;;;;9.69;69.04;99775.81;104864;1287;137183;-93
2022/11/04 09:44:31;;;;;;;14.40;7.40;;;;;;;9.79;68.98;99774.77;105105;1286;107505;-93
2022/11/04 09:47:06;;;;;;;13.10;6.60;;;;;;;9.89;68.10;99766.80;105000;1294;139095;-93
2022/11/04 09:49:51;;;;;;;14.60;6.90;;;;;;;10.01;67.72;99764.79;105144;1291;93164;-93
2022/11/04 09:52:31;;;;;;;13.10;7.00;;;;;;;10.15;67.34;99757.41;104851;1293;138529;-92
2022/11/04 09:55:10;;;;;;;14.50;7.30;;;;;;;10.24;66.78;99755.14;105011;1292;98545;-93
2022/11/04 09:57:41;;;;;;;14.30;6.60;;;;;;;10.32;66.72;99754.53;104989;1294;138600;-89
2022/11/04 10:00:17;;;;;;;13.70;7.00;;;;;;;10.42;66.45;99748.16;105146;1283;93046;-92
2022/11/04 10:03:20;;;;;;;12.50;7.30;;;;;;;10.48;65.73;99749.34;105142;1290;92941;-94
2022/11/04 10:06:13;;;;;;;12.60;7.00;;;;;;;10.56;66.15;99750.50;105176;1293;108304;-93
2022/11/04 10:08:59;;;;;;;13.40;7.20;;;;;;;10.64;65.39;99747.17;105192;1288;98060;-91
2022/11/04 10:11:45;;;;;;;11.30;6.50;;;;;;;10.78;65.59;99742.23;105037;1291;138267;-93
2022/11/04 10:14:36;;;;;;;11.70;7.00;;;;;;;10.94;64.71;99740.71;105150;1291;92892;-93
2022/11/04 10:17:20;;;;;;;13.70;6.90;;;;;;;11.02;64.24;99736.67;105080;1287;138371;-94
2022/11/04 10:20:23;;;;;;;12.90;7.00;;;;;;;11.12;64.24;99736.46;105074;1284;110639;-96
2022/11/04 10:23:06;;;;;;;12.40;6.60;;;;;;;11.20;64.00;99730.48;104921;1299;138159;-93
2022/11/04 10:25:54;;;;;;;14.60;7.10;;;;;;;11.32;63.48;99728.77;105167;1283;106568;-89
2022/11/04 10:28:35;;;;;;;13.00;6.80;;;;;;;11.50;63.13;99724.47;104932;1287;138520;-96
2022/11/04 10:31:17;;;;;;;14.30;7.40;;;;;;;11.54;62.56;99723.22;105205;1290;93275;-95
2022/11/04 10:33:55;;;;;;;11.40;7.20;;;;;;;11.59;63.03;99715.02;104976;1278;137955;-96
2022/11/04 10:36:35;;;;;;;11.50;6.00;;;;;;;11.71;62.75;99713.83;105112;1292;98165;-95
2022/11/04 10:39:24;;;;;;;13.90;6.00;;;;;;;11.78;61.94;99713.55;105113;1277;107403;-93
2022/11/04 10:41:57;;;;;;;11.60;6.20;;;;;;;11.79;62.11;99700.36;105052;1287;93146;-89
2022/11/04 10:44:34;;;;;;;13.50;6.50;;;;;;;11.73;62.02;99697.39;105131;1293;93114;-95
2022/11/04 10:47:20;;;;;;;13.30;7.20;;;;;;;11.72;63.15;99690.30;104922;1285;139281;-90
2022/11/04 10:50:17;;;;;;;14.40;6.90;;;;;;;11.74;61.84;99691.48;105051;1292;98930;-93
2022/11/04 10:53:24;;;;;;;13.10;6.90;;;;;;;11.70;62.26;99687.02;104895;1294;137962;-90
2022/11/04 10:56:03;;;;;;;13.20;6.70;;;;;;;11.76;62.20;99689.79;104985;1294;93144;-91
2022/11/04 11:01:37;;;;;;;14.10;7.50;;;;;;;11.98;62.50;99687.98;104960;1287;108626;-93
2022/11/04 11:04:26;;;;;;;12.30;6.50;;;;;;;12.12;62.11;99681.00;104893;1293;139205;-93
2022/11/04 11:07:08;;;;;;;11.80;6.70;;;;;;;12.19;61.33;99676.73;105017;1287;107918;-90
2022/11/04 11:09:53;;;;;;;12.60;6.10;;;;;;;12.20;61.21;99678.66;104860;1290;137377;-89
2022/11/04 11:12:39;;;;;;;13.20;6.70;;;;;;;12.17;61.09;99673.83;105002;1290;94125;-93
2022/11/04 11:15:36;;;;;;;14.30;7.00;;;;;;;12.21;61.72;99675.40;104900;1294;138405;-89
2022/11/04 11:18:24;;;;;;;13.20;6.50;;;;;;;12.34;62.25;99671.98;104968;1294;98117;-90
2022/11/04 11:21:11;;;;;;;12.00;6.40;;;;;;;12.45;60.70;99670.23;105034;1293;107422;-91
2022/11/04 11:23:50;;;;;;;13.30;6.90;;;;;;;12.51;60.98;99663.00;105039;1293;92752;-95
2022/11/04 11:26:30;;;;;;;10.80;5.60;;;;;;;12.58;60.85;99662.35;105041;1292;92845;-92
2022/11/04 11:29:02;;;;;;;12.10;6.60;;;;;;;12.53;60.16;99661.50;104999;1293;137705;-94
2022/11/04 11:31:40;;;;;;;12.80;6.70;;;;;;;12.54;60.57;99656.48;105117;1291;96932;-91
2022/11/04 11:34:25;;;;;;;12.60;6.40;;;;;;;12.58;60.46;99652.39;104977;1298;141097;-92
2022/11/04 11:36:58;;;;;;;11.00;5.60;;;;;;;12.65;60.58;99650.26;105095;1294;92785;-95
2022/11/04 11:39:35;;;;;;;11.20;6.20;;;;;;;12.71;59.13;99651.57;104999;1298;138291;-91
2022/11/04 11:42:14;;;;;;;11.40;5.90;;;;;;;12.76;59.33;99647.27;105122;1291;108498;-91
2022/11/04 11:44:53;;;;;;;11.70;6.20;;;;;;;12.78;58.94;99644.86;105140;1290;97629;-90
2022/11/04 11:47:40;;;;;;;12.70;6.80;;;;;;;12.81;59.17;99643.64;104979;1290;138477;-91
2022/11/04 11:50:23;;;;;;;10.70;5.90;;;;;;;12.82;58.78;99643.26;105101;1298;93708;-93
2022/11/04 11:53:06;;;;;;;14.10;7.00;;;;;;;12.78;58.80;99638.27;105046;1298;138668;-93
2022/11/04 11:55:49;;;;;;;12.10;6.70;;;;;;;12.78;58.64;99642.19;105099;1293;108326;-91
2022/11/04 11:58:32;;;;;;;9.90;5.60;;;;;;;12.79;58.57;99639.81;104885;1297;138756;-90
2022/11/04 12:01:29;;;;;;;10.70;6.20;;;;;;;12.78;58.76;99640.40;105083;1291;107082;-91
2022/11/04 12:04:03;;;;;;;12.80;6.40;;;;;;;12.83;59.43;99636.43;104995;1291;138320;-91
2022/11/04 12:07:08;;;;;;;12.70;6.30;;;;;;;12.87;58.99;99634.79;105100;1294;93234;-94
2022/11/04 12:10:08;;;;;;;12.20;6.70;;;;;;;12.92;58.70;99631.36;105022;1274;139835;-92
2022/11/04 12:13:09;;;;;;;11.70;6.80;;;;;;;12.92;58.79;99624.41;105125;1294;97760;-91
2022/11/04 12:16:15;;;;;;;13.10;6.50;;;;;;;12.94;59.14;99628.40;105015;1297;139078;-90
2022/11/04 12:19:02;;;;;;;12.90;7.20;;;;;;;12.98;59.20;99626.96;105116;1288;93209;-90
2022/11/04 12:21:41;;;;;;;13.20;7.00;;;;;;;12.96;58.74;99626.17;104882;1294;138490;-92
2022/11/04 12:24:27;;;;;;;13.00;6.20;;;;;;;12.95;58.69;99629.27;105122;1293;108159;-91
2022/11/04 12:27:15;;;;;;;13.30;6.90;;;;;;;12.88;58.63;99625.31;105132;1297;97106;-95
2022/11/04 12:30:05;;;;;;;12.00;5.70;;;;;;;12.85;58.87;99627.79;105091;1298;107572;-90
2022/11/04 12:32:50;;;;;;;12.00;6.60;;;;;;;12.81;58.79;99624.96;105123;1298;93174;-91
2022/11/04 12:35:44;;;;;;;10.60;5.70;;;;;;;12.80;59.08;99626.61;105048;1291;208835;-92
2022/11/04 12:38:35;;;;;;;11.40;6.50;;;;;;;12.76;58.68;99622.67;105003;1297;108634;-92
2022/11/04 12:41:15;;;;;;;12.70;6.70;;;;;;;12.77;59.57;99628.01;105028;1294;138397;-92
2022/11/04 12:44:15;;;;;;;10.70;5.80;;;;;;;12.82;59.20;99628.27;105129;1287;107327;-92
2022/11/04 12:47:14;;;;;;;12.70;6.80;;;;;;;12.87;58.67;99624.44;105015;1292;138542;-92
2022/11/04 12:50:08;;;;;;;11.50;5.90;;;;;;;12.94;58.29;99620.77;105121;1291;93140;-91
2022/11/04 12:52:50;;;;;;;12.80;6.80;;;;;;;12.96;57.71;99617.78;104883;1293;138552;-91
2022/11/04 12:59:36;;;;;;;11.50;6.30;;;;;;;12.92;57.39;99610.66;104899;1285;138399;-92